sensor_id;sensor_type;location;lat;lon;timestamp;temperature;humidity
997;DHT22;487;50.126;8.698;2022-07-05T00:01:42;21.80;99.90
997;DHT22;487;50.126;8.698;2022-07-05T00:04:10;21.80;99.90
997;DHT22;487;50.126;8.698;2022-07-05T00:06:38;21.80;99.90
997;DHT22;487;50.126;8.698;2022-07-05T00:09:28;21.80;99.90
997;DHT22;487;50.126;8.698;2022-07-05T00:11:56;21.80;99.90
997;DHT22;487;50.126;8.698;2022-07-05T00:14:24;21.80;99.90
997;DHT22;487;50.126;8.698;2022-07-05T00:16:52;21.80;99.90
997;DHT22;487;50.126;8.698;2022-07-05T00:19:20;21.80;99.90
997;DHT22;487;50.126;8.698;2022-07-05T00:21:48;21.80;99.90
997;DHT22;487;50.126;8.698;2022-07-05T00:24:16;21.70;99.90
997;DHT22;487;50.126;8.698;2022-07-05T00:26:45;21.80;99.90
997;DHT22;487;50.126;8.698;2022-07-05T00:29:13;21.70;99.90
997;DHT22;487;50.126;8.698;2022-07-05T00:31:41;21.70;99.90
997;DHT22;487;50.126;8.698;2022-07-05T00:34:08;21.60;99.90
997;DHT22;487;50.126;8.698;2022-07-05T00:36:37;21.60;99.90
997;DHT22;487;50.126;8.698;2022-07-05T00:39:05;21.70;99.90
997;DHT22;487;50.126;8.698;2022-07-05T00:41:33;21.60;99.90
997;DHT22;487;50.126;8.698;2022-07-05T00:44:06;21.60;99.90
997;DHT22;487;50.126;8.698;2022-07-05T00:46:34;21.60;99.90
997;DHT22;487;50.126;8.698;2022-07-05T00:49:04;21.60;99.90
997;DHT22;487;50.126;8.698;2022-07-05T00:51:34;21.50;99.90
997;DHT22;487;50.126;8.698;2022-07-05T00:54:16;21.50;99.90
997;DHT22;487;50.126;8.698;2022-07-05T00:56:44;21.50;99.90
997;DHT22;487;50.126;8.698;2022-07-05T00:59:14;21.50;99.90
997;DHT22;487;50.126;8.698;2022-07-05T01:01:41;21.40;99.90
997;DHT22;487;50.126;8.698;2022-07-05T01:04:10;21.40;99.90
997;DHT22;487;50.126;8.698;2022-07-05T01:06:40;21.40;99.90
997;DHT22;487;50.126;8.698;2022-07-05T01:09:10;21.30;99.90
997;DHT22;487;50.126;8.698;2022-07-05T01:11:41;21.30;99.90
997;DHT22;487;50.126;8.698;2022-07-05T01:14:10;21.30;99.90
997;DHT22;487;50.126;8.698;2022-07-05T01:16:40;21.30;99.90
997;DHT22;487;50.126;8.698;2022-07-05T01:19:10;21.30;99.90
997;DHT22;487;50.126;8.698;2022-07-05T01:21:40;21.30;99.90
997;DHT22;487;50.126;8.698;2022-07-05T01:24:11;21.30;99.90
997;DHT22;487;50.126;8.698;2022-07-05T01:26:40;21.30;99.90
997;DHT22;487;50.126;8.698;2022-07-05T01:29:08;21.20;99.90
997;DHT22;487;50.126;8.698;2022-07-05T01:31:37;21.20;99.90
997;DHT22;487;50.126;8.698;2022-07-05T01:34:05;21.20;99.90
997;DHT22;487;50.126;8.698;2022-07-05T01:36:34;21.20;99.90
997;DHT22;487;50.126;8.698;2022-07-05T01:39:03;21.10;99.90
997;DHT22;487;50.126;8.698;2022-07-05T01:41:33;21.10;99.90
997;DHT22;487;50.126;8.698;2022-07-05T01:44:01;21.10;99.90
997;DHT22;487;50.126;8.698;2022-07-05T01:46:33;21.00;99.90
997;DHT22;487;50.126;8.698;2022-07-05T01:49:05;21.00;99.90
997;DHT22;487;50.126;8.698;2022-07-05T01:51:37;21.00;99.90
997;DHT22;487;50.126;8.698;2022-07-05T01:54:05;20.90;99.90
997;DHT22;487;50.126;8.698;2022-07-05T01:56:36;20.90;99.90
997;DHT22;487;50.126;8.698;2022-07-05T01:59:05;20.90;99.90
997;DHT22;487;50.126;8.698;2022-07-05T02:01:35;20.90;99.90
997;DHT22;487;50.126;8.698;2022-07-05T02:04:04;20.90;99.90
997;DHT22;487;50.126;8.698;2022-07-05T02:06:33;20.90;99.90
997;DHT22;487;50.126;8.698;2022-07-05T02:09:02;20.90;99.90
997;DHT22;487;50.126;8.698;2022-07-05T02:14:00;20.90;99.90
997;DHT22;487;50.126;8.698;2022-07-05T02:16:29;20.80;99.90
997;DHT22;487;50.126;8.698;2022-07-05T02:18:57;20.80;99.90
997;DHT22;487;50.126;8.698;2022-07-05T02:21:25;20.80;99.90
997;DHT22;487;50.126;8.698;2022-07-05T02:23:54;20.80;99.90
997;DHT22;487;50.126;8.698;2022-07-05T02:26:22;20.70;99.90
997;DHT22;487;50.126;8.698;2022-07-05T02:28:50;20.70;99.90
997;DHT22;487;50.126;8.698;2022-07-05T02:31:19;20.80;99.90
997;DHT22;487;50.126;8.698;2022-07-05T02:33:47;20.70;99.90
997;DHT22;487;50.126;8.698;2022-07-05T02:36:15;20.70;99.90
997;DHT22;487;50.126;8.698;2022-07-05T02:38:44;20.70;99.90
997;DHT22;487;50.126;8.698;2022-07-05T02:41:12;20.70;99.90
997;DHT22;487;50.126;8.698;2022-07-05T02:43:40;20.70;99.90
997;DHT22;487;50.126;8.698;2022-07-05T02:46:09;20.60;99.90
997;DHT22;487;50.126;8.698;2022-07-05T02:48:38;20.50;99.90
997;DHT22;487;50.126;8.698;2022-07-05T02:51:06;20.50;99.90
997;DHT22;487;50.126;8.698;2022-07-05T02:53:34;20.50;99.90
997;DHT22;487;50.126;8.698;2022-07-05T02:56:03;20.40;99.90
997;DHT22;487;50.126;8.698;2022-07-05T02:58:31;20.30;99.90
997;DHT22;487;50.126;8.698;2022-07-05T03:00:59;20.30;99.90
997;DHT22;487;50.126;8.698;2022-07-05T03:03:27;20.20;99.90
997;DHT22;487;50.126;8.698;2022-07-05T03:05:56;20.20;99.90
997;DHT22;487;50.126;8.698;2022-07-05T03:08:24;20.10;99.90
997;DHT22;487;50.126;8.698;2022-07-05T03:10:51;20.10;99.90
997;DHT22;487;50.126;8.698;2022-07-05T03:13:19;20.10;99.90
997;DHT22;487;50.126;8.698;2022-07-05T03:15:47;20.10;99.90
997;DHT22;487;50.126;8.698;2022-07-05T03:18:15;20.00;99.90
997;DHT22;487;50.126;8.698;2022-07-05T03:20:43;20.00;99.90
997;DHT22;487;50.126;8.698;2022-07-05T03:23:12;20.00;99.90
997;DHT22;487;50.126;8.698;2022-07-05T03:25:40;20.00;99.90
997;DHT22;487;50.126;8.698;2022-07-05T03:28:08;20.00;99.90
997;DHT22;487;50.126;8.698;2022-07-05T03:30:35;20.00;99.90
997;DHT22;487;50.126;8.698;2022-07-05T03:33:03;20.00;99.90
997;DHT22;487;50.126;8.698;2022-07-05T03:35:31;20.10;99.90
997;DHT22;487;50.126;8.698;2022-07-05T03:37:59;20.10;99.90
997;DHT22;487;50.126;8.698;2022-07-05T03:40:28;20.10;99.90
997;DHT22;487;50.126;8.698;2022-07-05T03:42:56;20.10;99.90
997;DHT22;487;50.126;8.698;2022-07-05T03:45:24;20.20;99.90
997;DHT22;487;50.126;8.698;2022-07-05T03:47:52;20.20;99.90
997;DHT22;487;50.126;8.698;2022-07-05T03:50:20;20.20;99.90
997;DHT22;487;50.126;8.698;2022-07-05T03:52:48;20.20;99.90
997;DHT22;487;50.126;8.698;2022-07-05T03:55:16;20.20;99.90
997;DHT22;487;50.126;8.698;2022-07-05T03:57:45;20.30;99.90
997;DHT22;487;50.126;8.698;2022-07-05T04:00:14;20.30;99.90
997;DHT22;487;50.126;8.698;2022-07-05T04:02:42;20.40;99.90
997;DHT22;487;50.126;8.698;2022-07-05T04:05:10;20.50;99.90
997;DHT22;487;50.126;8.698;2022-07-05T04:07:47;20.40;99.90
997;DHT22;487;50.126;8.698;2022-07-05T04:10:16;20.40;99.90
997;DHT22;487;50.126;8.698;2022-07-05T04:12:45;20.40;99.90
997;DHT22;487;50.126;8.698;2022-07-05T04:15:14;20.30;99.90
997;DHT22;487;50.126;8.698;2022-07-05T04:17:46;20.40;99.90
997;DHT22;487;50.126;8.698;2022-07-05T04:20:14;20.40;99.90
997;DHT22;487;50.126;8.698;2022-07-05T04:22:42;20.30;99.90
997;DHT22;487;50.126;8.698;2022-07-05T04:25:10;20.30;99.90
997;DHT22;487;50.126;8.698;2022-07-05T04:27:47;20.30;99.90
997;DHT22;487;50.126;8.698;2022-07-05T04:30:16;20.40;99.90
997;DHT22;487;50.126;8.698;2022-07-05T04:32:45;20.40;99.90
997;DHT22;487;50.126;8.698;2022-07-05T04:35:14;20.40;99.90
997;DHT22;487;50.126;8.698;2022-07-05T04:37:43;20.40;99.90
997;DHT22;487;50.126;8.698;2022-07-05T04:40:13;20.20;99.90
997;DHT22;487;50.126;8.698;2022-07-05T04:42:41;20.50;99.90
997;DHT22;487;50.126;8.698;2022-07-05T04:45:10;20.50;99.90
997;DHT22;487;50.126;8.698;2022-07-05T04:47:38;20.50;99.90
997;DHT22;487;50.126;8.698;2022-07-05T04:50:07;20.50;99.90
997;DHT22;487;50.126;8.698;2022-07-05T04:52:35;20.60;99.90
997;DHT22;487;50.126;8.698;2022-07-05T04:55:04;20.70;99.90
997;DHT22;487;50.126;8.698;2022-07-05T04:57:37;20.70;99.90
997;DHT22;487;50.126;8.698;2022-07-05T05:00:06;20.70;99.90
997;DHT22;487;50.126;8.698;2022-07-05T05:02:36;20.70;99.90
997;DHT22;487;50.126;8.698;2022-07-05T05:05:05;20.70;99.90
997;DHT22;487;50.126;8.698;2022-07-05T05:07:33;20.60;99.90
997;DHT22;487;50.126;8.698;2022-07-05T05:10:04;20.60;99.90
997;DHT22;487;50.126;8.698;2022-07-05T05:15:00;20.60;99.90
997;DHT22;487;50.126;8.698;2022-07-05T05:17:36;20.50;99.90
997;DHT22;487;50.126;8.698;2022-07-05T05:20:06;20.50;99.90
997;DHT22;487;50.126;8.698;2022-07-05T05:22:34;20.50;99.90
997;DHT22;487;50.126;8.698;2022-07-05T05:25:03;20.50;99.90
997;DHT22;487;50.126;8.698;2022-07-05T05:27:31;20.50;99.90
997;DHT22;487;50.126;8.698;2022-07-05T05:29:59;20.50;99.90
997;DHT22;487;50.126;8.698;2022-07-05T05:32:27;20.50;99.90
997;DHT22;487;50.126;8.698;2022-07-05T05:34:56;20.60;99.90
997;DHT22;487;50.126;8.698;2022-07-05T05:37:24;20.60;99.90
997;DHT22;487;50.126;8.698;2022-07-05T05:39:53;20.60;99.90
997;DHT22;487;50.126;8.698;2022-07-05T05:42:20;20.70;99.90
997;DHT22;487;50.126;8.698;2022-07-05T05:44:48;20.70;99.90
997;DHT22;487;50.126;8.698;2022-07-05T05:47:16;20.70;99.90
997;DHT22;487;50.126;8.698;2022-07-05T05:49:44;20.80;99.90
997;DHT22;487;50.126;8.698;2022-07-05T05:52:14;20.90;99.90
997;DHT22;487;50.126;8.698;2022-07-05T05:54:42;21.00;99.90
997;DHT22;487;50.126;8.698;2022-07-05T05:57:10;21.00;99.90
997;DHT22;487;50.126;8.698;2022-07-05T05:59:38;21.10;99.90
997;DHT22;487;50.126;8.698;2022-07-05T06:02:06;21.20;99.90
997;DHT22;487;50.126;8.698;2022-07-05T06:04:34;22.80;99.90
997;DHT22;487;50.126;8.698;2022-07-05T06:07:02;21.30;99.90
997;DHT22;487;50.126;8.698;2022-07-05T06:09:34;21.40;99.90
997;DHT22;487;50.126;8.698;2022-07-05T06:12:02;21.40;99.90
997;DHT22;487;50.126;8.698;2022-07-05T06:14:30;21.50;99.90
997;DHT22;487;50.126;8.698;2022-07-05T06:16:58;21.50;99.90
997;DHT22;487;50.126;8.698;2022-07-05T06:19:26;21.50;99.90
997;DHT22;487;50.126;8.698;2022-07-05T06:21:54;21.50;99.90
997;DHT22;487;50.126;8.698;2022-07-05T06:24:26;21.50;99.90
997;DHT22;487;50.126;8.698;2022-07-05T06:26:55;21.60;99.90
997;DHT22;487;50.126;8.698;2022-07-05T06:29:23;21.60;99.90
997;DHT22;487;50.126;8.698;2022-07-05T06:31:50;21.50;99.90
997;DHT22;487;50.126;8.698;2022-07-05T06:34:18;21.50;99.90
997;DHT22;487;50.126;8.698;2022-07-05T06:36:46;21.50;99.90
997;DHT22;487;50.126;8.698;2022-07-05T06:39:15;21.60;99.90
997;DHT22;487;50.126;8.698;2022-07-05T06:41:43;21.60;99.90
997;DHT22;487;50.126;8.698;2022-07-05T06:44:12;21.60;99.90
997;DHT22;487;50.126;8.698;2022-07-05T06:47:00;21.70;99.90
997;DHT22;487;50.126;8.698;2022-07-05T06:49:28;21.70;99.90
997;DHT22;487;50.126;8.698;2022-07-05T06:51:56;21.70;99.90
997;DHT22;487;50.126;8.698;2022-07-05T06:54:24;21.80;99.90
997;DHT22;487;50.126;8.698;2022-07-05T06:57:12;21.80;99.90
997;DHT22;487;50.126;8.698;2022-07-05T06:59:58;21.80;99.90
997;DHT22;487;50.126;8.698;2022-07-05T07:02:28;21.80;99.90
997;DHT22;487;50.126;8.698;2022-07-05T07:04:56;21.90;99.90
997;DHT22;487;50.126;8.698;2022-07-05T07:07:41;22.00;99.90
997;DHT22;487;50.126;8.698;2022-07-05T07:10:26;22.00;99.90
997;DHT22;487;50.126;8.698;2022-07-05T07:12:56;22.10;99.90
997;DHT22;487;50.126;8.698;2022-07-05T07:15:25;22.20;99.90
997;DHT22;487;50.126;8.698;2022-07-05T07:17:53;22.30;99.90
997;DHT22;487;50.126;8.698;2022-07-05T07:20:21;22.30;99.90
997;DHT22;487;50.126;8.698;2022-07-05T07:22:50;22.40;99.90
997;DHT22;487;50.126;8.698;2022-07-05T07:25:18;22.40;99.90
997;DHT22;487;50.126;8.698;2022-07-05T07:27:48;22.50;99.90
997;DHT22;487;50.126;8.698;2022-07-05T07:30:18;22.50;99.90
997;DHT22;487;50.126;8.698;2022-07-05T07:32:48;22.50;99.90
997;DHT22;487;50.126;8.698;2022-07-05T07:35:16;22.50;99.90
997;DHT22;487;50.126;8.698;2022-07-05T07:37:44;22.60;99.90
997;DHT22;487;50.126;8.698;2022-07-05T07:40:12;22.60;99.90
997;DHT22;487;50.126;8.698;2022-07-05T07:42:40;22.70;99.90
997;DHT22;487;50.126;8.698;2022-07-05T07:45:09;22.80;99.90
997;DHT22;487;50.126;8.698;2022-07-05T07:47:37;22.90;99.90
997;DHT22;487;50.126;8.698;2022-07-05T07:50:08;22.90;99.90
997;DHT22;487;50.126;8.698;2022-07-05T07:52:36;23.00;99.90
997;DHT22;487;50.126;8.698;2022-07-05T07:55:05;23.10;99.90
997;DHT22;487;50.126;8.698;2022-07-05T07:57:34;23.10;99.90
997;DHT22;487;50.126;8.698;2022-07-05T08:00:03;23.10;99.90
997;DHT22;487;50.126;8.698;2022-07-05T08:02:32;23.20;99.90
997;DHT22;487;50.126;8.698;2022-07-05T08:05:00;23.30;99.90
997;DHT22;487;50.126;8.698;2022-07-05T08:07:30;23.30;99.90
997;DHT22;487;50.126;8.698;2022-07-05T08:09:58;23.40;99.90
997;DHT22;487;50.126;8.698;2022-07-05T08:12:26;23.50;99.90
997;DHT22;487;50.126;8.698;2022-07-05T08:14:54;23.50;99.90
997;DHT22;487;50.126;8.698;2022-07-05T08:17:22;23.60;99.90
997;DHT22;487;50.126;8.698;2022-07-05T08:19:50;23.60;99.90
997;DHT22;487;50.126;8.698;2022-07-05T08:22:36;23.70;99.90
997;DHT22;487;50.126;8.698;2022-07-05T08:25:05;23.80;99.90
997;DHT22;487;50.126;8.698;2022-07-05T08:27:33;23.90;99.90
997;DHT22;487;50.126;8.698;2022-07-05T08:30:01;23.90;99.90
997;DHT22;487;50.126;8.698;2022-07-05T08:32:29;23.90;99.90
997;DHT22;487;50.126;8.698;2022-07-05T08:34:56;24.00;99.90
997;DHT22;487;50.126;8.698;2022-07-05T08:37:24;24.10;99.90
997;DHT22;487;50.126;8.698;2022-07-05T08:39:54;24.10;99.90
997;DHT22;487;50.126;8.698;2022-07-05T08:42:23;24.20;99.90
997;DHT22;487;50.126;8.698;2022-07-05T08:44:51;24.20;99.90
997;DHT22;487;50.126;8.698;2022-07-05T08:47:19;24.20;99.90
997;DHT22;487;50.126;8.698;2022-07-05T08:49:49;24.20;99.90
997;DHT22;487;50.126;8.698;2022-07-05T08:52:18;24.30;99.90
997;DHT22;487;50.126;8.698;2022-07-05T08:54:49;24.40;99.90
997;DHT22;487;50.126;8.698;2022-07-05T08:57:19;24.30;99.90
997;DHT22;487;50.126;8.698;2022-07-05T08:59:47;24.40;99.90
997;DHT22;487;50.126;8.698;2022-07-05T09:02:16;24.40;99.90
997;DHT22;487;50.126;8.698;2022-07-05T09:04:45;24.50;99.90
997;DHT22;487;50.126;8.698;2022-07-05T09:07:16;24.60;99.90
997;DHT22;487;50.126;8.698;2022-07-05T09:09:47;24.80;99.90
997;DHT22;487;50.126;8.698;2022-07-05T09:12:17;24.90;99.90
997;DHT22;487;50.126;8.698;2022-07-05T09:14:49;24.80;99.90
997;DHT22;487;50.126;8.698;2022-07-05T09:17:17;24.60;99.90
997;DHT22;487;50.126;8.698;2022-07-05T09:20:04;24.80;99.90
997;DHT22;487;50.126;8.698;2022-07-05T09:22:42;24.80;99.90
997;DHT22;487;50.126;8.698;2022-07-05T09:25:15;24.90;99.90
997;DHT22;487;50.126;8.698;2022-07-05T09:27:51;25.00;99.90
997;DHT22;487;50.126;8.698;2022-07-05T09:30:26;25.00;99.90
997;DHT22;487;50.126;8.698;2022-07-05T09:33:06;24.80;99.90
997;DHT22;487;50.126;8.698;2022-07-05T09:35:36;24.50;99.90
997;DHT22;487;50.126;8.698;2022-07-05T09:38:05;24.50;99.90
997;DHT22;487;50.126;8.698;2022-07-05T09:40:45;24.50;99.90
997;DHT22;487;50.126;8.698;2022-07-05T09:43:15;24.70;99.90
997;DHT22;487;50.126;8.698;2022-07-05T09:45:55;24.80;99.90
997;DHT22;487;50.126;8.698;2022-07-05T09:48:25;25.20;99.90
997;DHT22;487;50.126;8.698;2022-07-05T09:51:06;25.30;99.90
997;DHT22;487;50.126;8.698;2022-07-05T09:53:55;25.40;99.90
997;DHT22;487;50.126;8.698;2022-07-05T09:56:28;25.30;99.90
997;DHT22;487;50.126;8.698;2022-07-05T09:59:12;25.30;99.90
997;DHT22;487;50.126;8.698;2022-07-05T10:01:42;25.30;99.90
997;DHT22;487;50.126;8.698;2022-07-05T10:04:10;25.50;99.90
997;DHT22;487;50.126;8.698;2022-07-05T10:06:39;25.50;99.90
997;DHT22;487;50.126;8.698;2022-07-05T10:09:09;25.60;99.90
997;DHT22;487;50.126;8.698;2022-07-05T10:11:39;25.50;99.90
997;DHT22;487;50.126;8.698;2022-07-05T10:14:11;25.40;99.90
997;DHT22;487;50.126;8.698;2022-07-05T10:16:45;25.40;99.90
997;DHT22;487;50.126;8.698;2022-07-05T10:21:44;25.80;99.90
997;DHT22;487;50.126;8.698;2022-07-05T10:24:34;25.80;99.90
997;DHT22;487;50.126;8.698;2022-07-05T10:27:07;25.80;99.90
997;DHT22;487;50.126;8.698;2022-07-05T10:29:36;25.80;99.90
997;DHT22;487;50.126;8.698;2022-07-05T10:32:08;25.90;99.90
997;DHT22;487;50.126;8.698;2022-07-05T10:34:37;25.90;99.90
997;DHT22;487;50.126;8.698;2022-07-05T10:37:25;26.00;99.90
997;DHT22;487;50.126;8.698;2022-07-05T10:39:56;26.10;99.90
997;DHT22;487;50.126;8.698;2022-07-05T10:42:26;26.10;99.90
997;DHT22;487;50.126;8.698;2022-07-05T10:44:54;26.00;99.90
997;DHT22;487;50.126;8.698;2022-07-05T10:47:23;26.00;99.90
997;DHT22;487;50.126;8.698;2022-07-05T10:50:05;26.20;99.90
997;DHT22;487;50.126;8.698;2022-07-05T10:52:34;26.20;99.90
997;DHT22;487;50.126;8.698;2022-07-05T10:55:21;26.30;99.90
997;DHT22;487;50.126;8.698;2022-07-05T10:58:18;26.40;99.90
997;DHT22;487;50.126;8.698;2022-07-05T11:00:48;26.50;99.90
997;DHT22;487;50.126;8.698;2022-07-05T11:03:33;26.50;99.90
997;DHT22;487;50.126;8.698;2022-07-05T11:06:02;26.70;99.90
997;DHT22;487;50.126;8.698;2022-07-05T11:08:31;26.70;99.90
997;DHT22;487;50.126;8.698;2022-07-05T11:11:24;26.80;99.90
997;DHT22;487;50.126;8.698;2022-07-05T11:13:52;26.90;99.90
997;DHT22;487;50.126;8.698;2022-07-05T11:16:21;26.90;99.90
997;DHT22;487;50.126;8.698;2022-07-05T11:18:53;26.30;99.90
997;DHT22;487;50.126;8.698;2022-07-05T11:21:22;27.20;99.90
997;DHT22;487;50.126;8.698;2022-07-05T11:23:50;27.20;99.90
997;DHT22;487;50.126;8.698;2022-07-05T11:26:39;27.30;99.90
997;DHT22;487;50.126;8.698;2022-07-05T11:29:39;27.30;99.90
997;DHT22;487;50.126;8.698;2022-07-05T11:32:08;27.20;99.90
997;DHT22;487;50.126;8.698;2022-07-05T11:34:38;27.20;99.90
997;DHT22;487;50.126;8.698;2022-07-05T11:37:19;27.30;99.90
997;DHT22;487;50.126;8.698;2022-07-05T11:40:27;27.40;99.90
997;DHT22;487;50.126;8.698;2022-07-05T11:42:56;27.40;99.90
997;DHT22;487;50.126;8.698;2022-07-05T11:45:24;27.30;99.90
997;DHT22;487;50.126;8.698;2022-07-05T11:47:54;27.40;99.90
997;DHT22;487;50.126;8.698;2022-07-05T11:50:32;27.40;99.90
997;DHT22;487;50.126;8.698;2022-07-05T11:53:02;27.50;99.90
997;DHT22;487;50.126;8.698;2022-07-05T11:55:31;27.20;99.90
997;DHT22;487;50.126;8.698;2022-07-05T11:57:59;27.00;99.90
997;DHT22;487;50.126;8.698;2022-07-05T12:00:30;27.00;99.90
997;DHT22;487;50.126;8.698;2022-07-05T12:02:59;27.10;99.90
997;DHT22;487;50.126;8.698;2022-07-05T12:05:32;26.90;99.90
997;DHT22;487;50.126;8.698;2022-07-05T12:08:07;26.90;99.90
997;DHT22;487;50.126;8.698;2022-07-05T12:10:36;26.90;99.90
997;DHT22;487;50.126;8.698;2022-07-05T12:13:43;26.80;99.90
997;DHT22;487;50.126;8.698;2022-07-05T12:16:11;26.60;99.90
997;DHT22;487;50.126;8.698;2022-07-05T12:18:47;26.60;99.90
997;DHT22;487;50.126;8.698;2022-07-05T12:21:17;26.50;99.90
997;DHT22;487;50.126;8.698;2022-07-05T12:23:47;26.60;99.90
997;DHT22;487;50.126;8.698;2022-07-05T12:26:16;26.80;99.90
997;DHT22;487;50.126;8.698;2022-07-05T12:28:45;27.00;99.90
997;DHT22;487;50.126;8.698;2022-07-05T12:31:20;27.10;99.90
997;DHT22;487;50.126;8.698;2022-07-05T12:33:49;27.20;99.90
997;DHT22;487;50.126;8.698;2022-07-05T12:36:19;27.40;99.90
997;DHT22;487;50.126;8.698;2022-07-05T12:38:50;27.40;99.90
997;DHT22;487;50.126;8.698;2022-07-05T12:41:22;27.40;99.90
997;DHT22;487;50.126;8.698;2022-07-05T12:43:51;27.40;99.90
997;DHT22;487;50.126;8.698;2022-07-05T12:46:21;27.50;99.90
997;DHT22;487;50.126;8.698;2022-07-05T12:49:09;27.50;99.90
997;DHT22;487;50.126;8.698;2022-07-05T12:51:41;27.50;99.90
997;DHT22;487;50.126;8.698;2022-07-05T12:54:20;27.50;99.90
997;DHT22;487;50.126;8.698;2022-07-05T12:57:06;27.60;99.90
997;DHT22;487;50.126;8.698;2022-07-05T12:59:59;27.70;99.90
997;DHT22;487;50.126;8.698;2022-07-05T13:02:34;27.70;99.90
997;DHT22;487;50.126;8.698;2022-07-05T13:05:03;27.60;99.90
997;DHT22;487;50.126;8.698;2022-07-05T13:10:16;27.60;99.90
997;DHT22;487;50.126;8.698;2022-07-05T13:12:44;27.80;99.90
997;DHT22;487;50.126;8.698;2022-07-05T13:15:12;28.00;99.90
997;DHT22;487;50.126;8.698;2022-07-05T13:17:41;28.30;99.90
997;DHT22;487;50.126;8.698;2022-07-05T13:20:10;28.20;99.90
997;DHT22;487;50.126;8.698;2022-07-05T13:22:39;28.30;99.90
997;DHT22;487;50.126;8.698;2022-07-05T13:25:08;28.30;99.90
997;DHT22;487;50.126;8.698;2022-07-05T13:27:38;28.40;99.90
997;DHT22;487;50.126;8.698;2022-07-05T13:30:07;28.40;99.90
997;DHT22;487;50.126;8.698;2022-07-05T13:32:35;28.40;99.90
997;DHT22;487;50.126;8.698;2022-07-05T13:35:03;28.60;99.90
997;DHT22;487;50.126;8.698;2022-07-05T13:37:31;28.40;99.90
997;DHT22;487;50.126;8.698;2022-07-05T13:40:00;28.00;99.90
997;DHT22;487;50.126;8.698;2022-07-05T13:42:28;27.90;99.90
997;DHT22;487;50.126;8.698;2022-07-05T13:44:56;28.00;99.90
997;DHT22;487;50.126;8.698;2022-07-05T13:47:24;28.00;99.90
997;DHT22;487;50.126;8.698;2022-07-05T13:49:52;27.90;99.90
997;DHT22;487;50.126;8.698;2022-07-05T13:52:40;27.90;99.90
997;DHT22;487;50.126;8.698;2022-07-05T13:55:09;27.70;99.90
997;DHT22;487;50.126;8.698;2022-07-05T13:57:37;28.00;99.90
997;DHT22;487;50.126;8.698;2022-07-05T14:00:06;28.00;99.90
997;DHT22;487;50.126;8.698;2022-07-05T14:02:34;28.20;99.90
997;DHT22;487;50.126;8.698;2022-07-05T14:05:03;28.20;99.90
997;DHT22;487;50.126;8.698;2022-07-05T14:07:30;28.20;99.90
997;DHT22;487;50.126;8.698;2022-07-05T14:09:58;28.20;99.90
997;DHT22;487;50.126;8.698;2022-07-05T14:12:28;28.40;99.90
997;DHT22;487;50.126;8.698;2022-07-05T14:14:55;28.50;99.90
997;DHT22;487;50.126;8.698;2022-07-05T14:17:23;28.70;99.90
997;DHT22;487;50.126;8.698;2022-07-05T14:22:20;28.90;99.90
997;DHT22;487;50.126;8.698;2022-07-05T14:24:48;28.80;99.90
997;DHT22;487;50.126;8.698;2022-07-05T14:27:16;28.80;99.90
997;DHT22;487;50.126;8.698;2022-07-05T14:29:45;28.80;99.90
997;DHT22;487;50.126;8.698;2022-07-05T14:32:13;28.80;99.90
997;DHT22;487;50.126;8.698;2022-07-05T14:34:41;28.80;99.90
997;DHT22;487;50.126;8.698;2022-07-05T14:37:09;28.80;99.90
997;DHT22;487;50.126;8.698;2022-07-05T14:39:37;28.50;99.90
997;DHT22;487;50.126;8.698;2022-07-05T14:42:05;28.50;99.90
997;DHT22;487;50.126;8.698;2022-07-05T14:44:33;28.40;99.90
997;DHT22;487;50.126;8.698;2022-07-05T14:47:02;28.60;99.90
997;DHT22;487;50.126;8.698;2022-07-05T14:49:30;28.70;99.90
997;DHT22;487;50.126;8.698;2022-07-05T14:56:54;29.00;99.90
997;DHT22;487;50.126;8.698;2022-07-05T14:59:25;29.00;99.90
997;DHT22;487;50.126;8.698;2022-07-05T15:01:53;29.10;99.90
997;DHT22;487;50.126;8.698;2022-07-05T15:04:23;29.20;99.90
997;DHT22;487;50.126;8.698;2022-07-05T15:06:51;29.30;99.90
997;DHT22;487;50.126;8.698;2022-07-05T15:09:19;29.40;99.90
997;DHT22;487;50.126;8.698;2022-07-05T15:11:48;29.30;99.90
997;DHT22;487;50.126;8.698;2022-07-05T15:14:16;29.20;99.90
997;DHT22;487;50.126;8.698;2022-07-05T15:16:44;29.10;99.90
997;DHT22;487;50.126;8.698;2022-07-05T15:19:12;29.00;99.90
997;DHT22;487;50.126;8.698;2022-07-05T15:21:42;28.90;99.90
997;DHT22;487;50.126;8.698;2022-07-05T15:24:10;28.80;99.90
997;DHT22;487;50.126;8.698;2022-07-05T15:26:43;28.60;99.90
997;DHT22;487;50.126;8.698;2022-07-05T15:29:11;28.50;99.90
997;DHT22;487;50.126;8.698;2022-07-05T15:31:40;28.40;99.90
997;DHT22;487;50.126;8.698;2022-07-05T15:34:08;28.30;99.90
997;DHT22;487;50.126;8.698;2022-07-05T15:36:36;28.30;99.90
997;DHT22;487;50.126;8.698;2022-07-05T15:39:06;28.20;99.90
997;DHT22;487;50.126;8.698;2022-07-05T15:41:34;28.10;99.90
997;DHT22;487;50.126;8.698;2022-07-05T15:44:03;28.10;99.90
997;DHT22;487;50.126;8.698;2022-07-05T15:46:32;28.00;99.90
997;DHT22;487;50.126;8.698;2022-07-05T15:49:14;28.00;99.90
997;DHT22;487;50.126;8.698;2022-07-05T15:51:43;27.90;99.90
997;DHT22;487;50.126;8.698;2022-07-05T15:54:12;29.10;99.90
997;DHT22;487;50.126;8.698;2022-07-05T15:56:40;28.10;99.90
997;DHT22;487;50.126;8.698;2022-07-05T15:59:08;28.20;99.90
997;DHT22;487;50.126;8.698;2022-07-05T16:01:36;28.20;99.90
997;DHT22;487;50.126;8.698;2022-07-05T16:04:05;28.40;99.90
997;DHT22;487;50.126;8.698;2022-07-05T16:06:33;28.40;99.90
997;DHT22;487;50.126;8.698;2022-07-05T16:11:31;28.50;99.90
997;DHT22;487;50.126;8.698;2022-07-05T16:13:59;28.60;99.90
997;DHT22;487;50.126;8.698;2022-07-05T16:16:27;28.80;99.90
997;DHT22;487;50.126;8.698;2022-07-05T16:18:55;28.90;99.90
997;DHT22;487;50.126;8.698;2022-07-05T16:21:23;28.90;99.90
997;DHT22;487;50.126;8.698;2022-07-05T16:23:51;28.90;99.90
997;DHT22;487;50.126;8.698;2022-07-05T16:26:20;28.80;99.90
997;DHT22;487;50.126;8.698;2022-07-05T16:28:50;28.70;99.90
997;DHT22;487;50.126;8.698;2022-07-05T16:31:18;28.70;99.90
997;DHT22;487;50.126;8.698;2022-07-05T16:33:48;28.60;99.90
997;DHT22;487;50.126;8.698;2022-07-05T16:36:18;28.70;99.90
997;DHT22;487;50.126;8.698;2022-07-05T16:38:47;28.90;99.90
997;DHT22;487;50.126;8.698;2022-07-05T16:41:20;29.00;99.90
997;DHT22;487;50.126;8.698;2022-07-05T16:43:49;29.20;99.90
997;DHT22;487;50.126;8.698;2022-07-05T16:46:18;29.50;99.90
997;DHT22;487;50.126;8.698;2022-07-05T16:48:48;31.00;99.90
997;DHT22;487;50.126;8.698;2022-07-05T16:51:17;29.50;99.90
997;DHT22;487;50.126;8.698;2022-07-05T16:53:47;29.50;99.90
997;DHT22;487;50.126;8.698;2022-07-05T16:56:16;29.70;99.90
997;DHT22;487;50.126;8.698;2022-07-05T16:58:47;29.80;99.90
997;DHT22;487;50.126;8.698;2022-07-05T17:01:17;29.90;99.90
997;DHT22;487;50.126;8.698;2022-07-05T17:03:47;29.90;99.90
997;DHT22;487;50.126;8.698;2022-07-05T17:06:16;29.90;99.90
997;DHT22;487;50.126;8.698;2022-07-05T17:08:45;29.90;99.90
997;DHT22;487;50.126;8.698;2022-07-05T17:11:15;29.90;99.90
997;DHT22;487;50.126;8.698;2022-07-05T17:13:45;29.90;99.90
997;DHT22;487;50.126;8.698;2022-07-05T17:16:22;29.90;99.90